sensor_id;sensor_type;location;lat;lon;timestamp;pressure;altitude;pressure_sealevel;temperature;humidity
59787;BME280;45672;51.612;5.536;2022-07-06T00:01:51;102372.97;;;15.31;62.41
59787;BME280;45672;51.612;5.536;2022-07-06T00:04:21;102371.25;;;15.30;62.57
59787;BME280;45672;51.612;5.536;2022-07-06T00:06:46;102370.00;;;15.25;62.87
59787;BME280;45672;51.612;5.536;2022-07-06T00:09:12;102378.22;;;15.23;62.98
59787;BME280;45672;51.612;5.536;2022-07-06T00:11:37;102378.41;;;15.12;62.88
59787;BME280;45672;51.612;5.536;2022-07-06T00:14:03;102378.00;;;15.07;63.52
59787;BME280;45672;51.612;5.536;2022-07-06T00:16:30;102381.25;;;15.00;63.55
59787;BME280;45672;51.612;5.536;2022-07-06T00:18:55;102375.94;;;14.91;63.68
59787;BME280;45672;51.612;5.536;2022-07-06T00:21:20;102380.75;;;14.87;64.11
59787;BME280;45672;51.612;5.536;2022-07-06T00:23:46;102387.69;;;14.80;64.07
59787;BME280;45672;51.612;5.536;2022-07-06T00:26:11;102386.28;;;14.76;64.18
59787;BME280;45672;51.612;5.536;2022-07-06T00:28:37;102388.25;;;14.74;64.47
59787;BME280;45672;51.612;5.536;2022-07-06T00:31:02;102382.34;;;14.70;64.98
59787;BME280;45672;51.612;5.536;2022-07-06T00:33:27;102381.09;;;14.64;64.91
59787;BME280;45672;51.612;5.536;2022-07-06T00:35:55;102390.25;;;14.62;65.19
59787;BME280;45672;51.612;5.536;2022-07-06T00:38:21;102382.78;;;14.56;65.38
59787;BME280;45672;51.612;5.536;2022-07-06T00:40:46;102376.16;;;14.50;65.40
59787;BME280;45672;51.612;5.536;2022-07-06T00:43:11;102376.16;;;14.50;65.57
59787;BME280;45672;51.612;5.536;2022-07-06T00:45:37;102376.72;;;14.44;65.91
59787;BME280;45672;51.612;5.536;2022-07-06T00:48:02;102374.31;;;14.41;65.90
59787;BME280;45672;51.612;5.536;2022-07-06T00:50:27;102374.47;;;14.39;66.32
59787;BME280;45672;51.612;5.536;2022-07-06T00:52:54;102370.22;;;14.37;66.13
59787;BME280;45672;51.612;5.536;2022-07-06T00:55:25;102374.75;;;14.36;66.26
59787;BME280;45672;51.612;5.536;2022-07-06T00:57:52;102372.66;;;14.30;66.59
59787;BME280;45672;51.612;5.536;2022-07-06T01:00:20;102377.16;;;14.29;66.56
59787;BME280;45672;51.612;5.536;2022-07-06T01:02:47;102365.91;;;14.26;66.69
59787;BME280;45672;51.612;5.536;2022-07-06T01:05:14;102359.66;;;14.16;66.76
59787;BME280;45672;51.612;5.536;2022-07-06T01:07:41;102366.88;;;14.15;67.00
59787;BME280;45672;51.612;5.536;2022-07-06T01:10:09;102369.13;;;14.10;67.57
59787;BME280;45672;51.612;5.536;2022-07-06T01:12:36;102372.06;;;14.07;67.38
59787;BME280;45672;51.612;5.536;2022-07-06T01:15:10;102378.44;;;14.06;66.92
59787;BME280;45672;51.612;5.536;2022-07-06T01:17:38;102369.97;;;14.01;67.62
59787;BME280;45672;51.612;5.536;2022-07-06T01:20:13;102380.09;;;13.97;67.63
59787;BME280;45672;51.612;5.536;2022-07-06T01:22:38;102367.00;;;13.94;67.59
59787;BME280;45672;51.612;5.536;2022-07-06T01:25:05;102372.78;;;13.89;67.69
59787;BME280;45672;51.612;5.536;2022-07-06T01:27:31;102374.47;;;13.90;67.76
59787;BME280;45672;51.612;5.536;2022-07-06T01:29:57;102379.09;;;13.88;67.86
59787;BME280;45672;51.612;5.536;2022-07-06T01:32:22;102374.03;;;13.85;68.07
59787;BME280;45672;51.612;5.536;2022-07-06T01:34:47;102369.81;;;13.83;67.94
59787;BME280;45672;51.612;5.536;2022-07-06T01:37:13;102377.28;;;13.79;68.05
59787;BME280;45672;51.612;5.536;2022-07-06T01:39:39;102364.88;;;13.78;68.07
59787;BME280;45672;51.612;5.536;2022-07-06T01:42:05;102365.72;;;13.78;68.09
59787;BME280;45672;51.612;5.536;2022-07-06T01:44:30;102363.19;;;13.77;68.50
59787;BME280;45672;51.612;5.536;2022-07-06T01:46:55;102366.13;;;13.74;68.57
59787;BME280;45672;51.612;5.536;2022-07-06T01:49:21;102363.75;;;13.71;68.80
59787;BME280;45672;51.612;5.536;2022-07-06T01:51:46;102362.50;;;13.75;68.74
59787;BME280;45672;51.612;5.536;2022-07-06T01:54:12;102370.06;;;13.70;68.48
59787;BME280;45672;51.612;5.536;2022-07-06T01:56:37;102372.75;;;13.70;68.79
59787;BME280;45672;51.612;5.536;2022-07-06T01:59:02;102373.59;;;13.70;68.71
59787;BME280;45672;51.612;5.536;2022-07-06T02:01:27;102370.34;;;13.67;68.58
59787;BME280;45672;51.612;5.536;2022-07-06T02:03:53;102361.63;;;13.65;68.64
59787;BME280;45672;51.612;5.536;2022-07-06T02:06:19;102370.63;;;13.64;68.76
59787;BME280;45672;51.612;5.536;2022-07-06T02:08:46;102373.59;;;13.60;68.87
59787;BME280;45672;51.612;5.536;2022-07-06T02:11:11;102369.06;;;13.61;68.60
59787;BME280;45672;51.612;5.536;2022-07-06T02:13:38;102368.53;;;13.57;68.80
59787;BME280;45672;51.612;5.536;2022-07-06T02:16:04;102371.31;;;13.56;68.88
59787;BME280;45672;51.612;5.536;2022-07-06T02:18:29;102365.41;;;13.52;68.69
59787;BME280;45672;51.612;5.536;2022-07-06T02:20:55;102371.84;;;13.50;68.83
59787;BME280;45672;51.612;5.536;2022-07-06T02:23:20;102374.69;;;13.48;68.83
59787;BME280;45672;51.612;5.536;2022-07-06T02:25:46;102374.09;;;13.44;69.33
59787;BME280;45672;51.612;5.536;2022-07-06T02:28:11;102376.75;;;13.44;68.90
59787;BME280;45672;51.612;5.536;2022-07-06T02:30:36;102374.50;;;13.40;69.34
59787;BME280;45672;51.612;5.536;2022-07-06T02:33:02;102365.78;;;13.38;69.30
59787;BME280;45672;51.612;5.536;2022-07-06T02:35:27;102368.75;;;13.35;69.45
59787;BME280;45672;51.612;5.536;2022-07-06T02:37:52;102357.16;;;13.34;69.54
59787;BME280;45672;51.612;5.536;2022-07-06T02:40:18;102368.84;;;13.33;69.59
59787;BME280;45672;51.612;5.536;2022-07-06T02:42:43;102357.44;;;13.31;69.64
59787;BME280;45672;51.612;5.536;2022-07-06T02:45:09;102368.25;;;13.30;69.87
59787;BME280;45672;51.612;5.536;2022-07-06T02:47:34;102368.13;;;13.31;70.03
59787;BME280;45672;51.612;5.536;2022-07-06T02:50:00;102374.56;;;13.28;70.43
59787;BME280;45672;51.612;5.536;2022-07-06T02:52:26;102364.44;;;13.22;70.69
59787;BME280;45672;51.612;5.536;2022-07-06T02:54:52;102369.63;;;13.24;70.53
59787;BME280;45672;51.612;5.536;2022-07-06T02:57:18;102367.56;;;13.27;70.33
59787;BME280;45672;51.612;5.536;2022-07-06T02:59:43;102374.56;;;13.28;70.53
59787;BME280;45672;51.612;5.536;2022-07-06T03:02:09;102372.19;;;13.25;70.56
59787;BME280;45672;51.612;5.536;2022-07-06T03:04:35;102383.28;;;13.21;70.29
59787;BME280;45672;51.612;5.536;2022-07-06T03:07:02;102378.22;;;13.18;70.79
59787;BME280;45672;51.612;5.536;2022-07-06T03:09:27;102384.53;;;13.17;70.57
59787;BME280;45672;51.612;5.536;2022-07-06T03:11:52;102387.47;;;13.14;71.04
59787;BME280;45672;51.612;5.536;2022-07-06T03:14:18;102388.31;;;13.14;71.40
59787;BME280;45672;51.612;5.536;2022-07-06T03:16:43;102371.72;;;13.10;70.86
59787;BME280;45672;51.612;5.536;2022-07-06T03:19:09;102378.44;;;13.15;70.99
59787;BME280;45672;51.612;5.536;2022-07-06T03:21:34;102380.00;;;13.17;70.98
59787;BME280;45672;51.612;5.536;2022-07-06T03:23:59;102382.13;;;13.14;71.20
59787;BME280;45672;51.612;5.536;2022-07-06T03:26:25;102379.59;;;13.12;70.98
59787;BME280;45672;51.612;5.536;2022-07-06T03:28:50;102378.72;;;13.11;71.04
59787;BME280;45672;51.612;5.536;2022-07-06T03:31:15;102383.22;;;13.11;71.26
59787;BME280;45672;51.612;5.536;2022-07-06T03:33:40;102377.47;;;13.16;71.30
59787;BME280;45672;51.612;5.536;2022-07-06T03:36:06;102382.69;;;13.17;70.87
59787;BME280;45672;51.612;5.536;2022-07-06T03:38:32;102374.25;;;13.12;71.00
59787;BME280;45672;51.612;5.536;2022-07-06T03:40:57;102383.94;;;13.13;71.25
59787;BME280;45672;51.612;5.536;2022-07-06T03:43:23;102384.66;;;13.15;71.09
59787;BME280;45672;51.612;5.536;2022-07-06T03:45:48;102386.22;;;13.18;71.12
59787;BME280;45672;51.612;5.536;2022-07-06T03:48:13;102387.34;;;13.15;71.03
59787;BME280;45672;51.612;5.536;2022-07-06T03:50:39;102387.34;;;13.15;71.64
59787;BME280;45672;51.612;5.536;2022-07-06T03:53:04;102382.13;;;13.14;71.28
59787;BME280;45672;51.612;5.536;2022-07-06T03:55:29;102384.81;;;13.14;71.42
59787;BME280;45672;51.612;5.536;2022-07-06T03:57:55;102380.16;;;13.16;71.38
59787;BME280;45672;51.612;5.536;2022-07-06T04:00:20;102379.31;;;13.15;71.30
59787;BME280;45672;51.612;5.536;2022-07-06T04:02:45;102389.88;;;13.17;71.24
59787;BME280;45672;51.612;5.536;2022-07-06T04:05:11;102383.78;;;13.15;71.40
59787;BME280;45672;51.612;5.536;2022-07-06T04:07:36;102383.69;;;13.16;70.54
59787;BME280;45672;51.612;5.536;2022-07-06T04:10:02;102383.94;;;13.13;71.08
59787;BME280;45672;51.612;5.536;2022-07-06T04:12:27;102386.88;;;13.10;71.42
59787;BME280;45672;51.612;5.536;2022-07-06T04:14:57;102392.22;;;13.10;71.51
59787;BME280;45672;51.612;5.536;2022-07-06T04:17:23;102386.44;;;13.05;71.79
59787;BME280;45672;51.612;5.536;2022-07-06T04:20:08;102379.94;;;12.98;72.11
59787;BME280;45672;51.612;5.536;2022-07-06T04:22:37;102376.56;;;12.96;72.11
59787;BME280;45672;51.612;5.536;2022-07-06T04:25:02;102374.97;;;12.93;72.31
59787;BME280;45672;51.612;5.536;2022-07-06T04:27:28;102374.56;;;12.88;72.80
59787;BME280;45672;51.612;5.536;2022-07-06T04:29:53;102371.88;;;12.88;72.82
59787;BME280;45672;51.612;5.536;2022-07-06T04:32:21;102378.25;;;12.97;72.74
59787;BME280;45672;51.612;5.536;2022-07-06T04:34:46;102376.69;;;12.94;72.42
59787;BME280;45672;51.612;5.536;2022-07-06T04:37:12;102374.59;;;12.98;72.71
59787;BME280;45672;51.612;5.536;2022-07-06T04:39:37;102373.47;;;13.00;72.63
59787;BME280;45672;51.612;5.536;2022-07-06T04:42:03;102378.69;;;13.02;72.57
59787;BME280;45672;51.612;5.536;2022-07-06T04:44:28;102373.34;;;13.02;72.45
59787;BME280;45672;51.612;5.536;2022-07-06T04:46:53;102364.88;;;12.97;72.61
59787;BME280;45672;51.612;5.536;2022-07-06T04:49:19;102369.97;;;13.00;72.81
59787;BME280;45672;51.612;5.536;2022-07-06T04:51:44;102367.63;;;13.06;72.70
59787;BME280;45672;51.612;5.536;2022-07-06T04:54:09;102374.50;;;13.09;72.66
59787;BME280;45672;51.612;5.536;2022-07-06T04:56:35;102373.69;;;13.18;72.55
59787;BME280;45672;51.612;5.536;2022-07-06T04:59:00;102375.41;;;13.19;72.56
59787;BME280;45672;51.612;5.536;2022-07-06T05:01:25;102378.50;;;13.24;72.32
59787;BME280;45672;51.612;5.536;2022-07-06T05:03:51;102378.25;;;13.27;72.12
59787;BME280;45672;51.612;5.536;2022-07-06T05:06:16;102379.44;;;13.35;72.25
59787;BME280;45672;51.612;5.536;2022-07-06T05:08:43;102371.69;;;13.41;72.12
59787;BME280;45672;51.612;5.536;2022-07-06T05:11:09;102375.38;;;13.50;71.84
59787;BME280;45672;51.612;5.536;2022-07-06T05:13:35;102385.94;;;13.61;71.29
59787;BME280;45672;51.612;5.536;2022-07-06T05:16:00;102387.00;;;13.70;70.91
59787;BME280;45672;51.612;5.536;2022-07-06T05:18:25;102388.25;;;13.86;70.73
59787;BME280;45672;51.612;5.536;2022-07-06T05:20:50;102386.47;;;13.96;70.80
59787;BME280;45672;51.612;5.536;2022-07-06T05:23:16;102390.53;;;14.10;70.27
59787;BME280;45672;51.612;5.536;2022-07-06T05:25:41;102398.41;;;14.21;70.20
59787;BME280;45672;51.612;5.536;2022-07-06T05:28:06;102397.31;;;14.34;69.82
59787;BME280;45672;51.612;5.536;2022-07-06T05:30:32;102397.44;;;14.42;69.52
59787;BME280;45672;51.612;5.536;2022-07-06T05:32:57;102398.41;;;14.41;69.41
59787;BME280;45672;51.612;5.536;2022-07-06T05:35:22;102397.28;;;14.53;68.89
59787;BME280;45672;51.612;5.536;2022-07-06T05:37:47;102395.63;;;14.62;68.86
59787;BME280;45672;51.612;5.536;2022-07-06T05:40:13;102401.91;;;14.61;69.22
59787;BME280;45672;51.612;5.536;2022-07-06T05:42:38;102403.75;;;14.60;69.01
59787;BME280;45672;51.612;5.536;2022-07-06T05:45:04;102398.41;;;14.60;69.25
59787;BME280;45672;51.612;5.536;2022-07-06T05:47:30;102396.19;;;14.65;69.25
59787;BME280;45672;51.612;5.536;2022-07-06T05:50:14;102390.38;;;14.70;69.38
59787;BME280;45672;51.612;5.536;2022-07-06T05:52:44;102398.94;;;14.83;69.07
59787;BME280;45672;51.612;5.536;2022-07-06T05:55:11;102404.28;;;14.93;68.40
59787;BME280;45672;51.612;5.536;2022-07-06T05:57:37;102402.22;;;15.15;68.35
59787;BME280;45672;51.612;5.536;2022-07-06T06:00:04;102406.78;;;15.42;67.49
59787;BME280;45672;51.612;5.536;2022-07-06T06:02:40;102404.50;;;15.75;66.29
59787;BME280;45672;51.612;5.536;2022-07-06T06:05:08;102408.53;;;16.07;65.63
59787;BME280;45672;51.612;5.536;2022-07-06T06:07:37;102409.13;;;16.37;64.76
59787;BME280;45672;51.612;5.536;2022-07-06T06:10:04;102414.72;;;16.62;64.16
59787;BME280;45672;51.612;5.536;2022-07-06T06:12:30;102410.97;;;16.81;63.57
59787;BME280;45672;51.612;5.536;2022-07-06T06:14:55;102409.19;;;16.89;63.11
59787;BME280;45672;51.612;5.536;2022-07-06T06:17:21;102419.75;;;17.09;62.33
59787;BME280;45672;51.612;5.536;2022-07-06T06:19:46;102415.19;;;17.36;61.55
59787;BME280;45672;51.612;5.536;2022-07-06T06:22:11;102410.75;;;17.61;60.43
59787;BME280;45672;51.612;5.536;2022-07-06T06:24:37;102415.16;;;17.79;59.74
59787;BME280;45672;51.612;5.536;2022-07-06T06:27:03;102416.56;;;18.07;59.02
59787;BME280;45672;51.612;5.536;2022-07-06T06:29:28;102416.75;;;18.39;58.37
59787;BME280;45672;51.612;5.536;2022-07-06T06:31:53;102408.16;;;18.52;57.14
59787;BME280;45672;51.612;5.536;2022-07-06T06:34:19;102406.81;;;18.56;57.31
59787;BME280;45672;51.612;5.536;2022-07-06T06:36:44;102410.69;;;18.53;56.85
59787;BME280;45672;51.612;5.536;2022-07-06T06:39:09;102414.25;;;18.46;56.77
59787;BME280;45672;51.612;5.536;2022-07-06T06:41:34;102411.03;;;18.42;57.07
59787;BME280;45672;51.612;5.536;2022-07-06T06:44:00;102409.03;;;18.36;57.06
59787;BME280;45672;51.612;5.536;2022-07-06T06:46:25;102406.84;;;18.39;57.10
59787;BME280;45672;51.612;5.536;2022-07-06T06:48:51;102412.22;;;18.48;56.98
59787;BME280;45672;51.612;5.536;2022-07-06T06:51:16;102410.69;;;18.61;56.51
59787;BME280;45672;51.612;5.536;2022-07-06T06:53:41;102414.03;;;18.72;56.52
59787;BME280;45672;51.612;5.536;2022-07-06T06:56:07;102412.69;;;18.84;55.73
59787;BME280;45672;51.612;5.536;2022-07-06T06:58:32;102416.91;;;19.03;54.77
59787;BME280;45672;51.612;5.536;2022-07-06T07:00:57;102421.66;;;19.41;54.20
59787;BME280;45672;51.612;5.536;2022-07-06T07:03:23;102426.69;;;19.84;52.66
59787;BME280;45672;51.612;5.536;2022-07-06T07:05:48;102417.94;;;20.05;51.86
59787;BME280;45672;51.612;5.536;2022-07-06T07:08:14;102426.13;;;20.43;50.30
59787;BME280;45672;51.612;5.536;2022-07-06T07:10:40;102420.31;;;20.69;49.54
59787;BME280;45672;51.612;5.536;2022-07-06T07:13:05;102425.78;;;21.14;48.59
59787;BME280;45672;51.612;5.536;2022-07-06T07:15:30;102432.56;;;21.25;47.27
59787;BME280;45672;51.612;5.536;2022-07-06T07:17:56;102432.09;;;21.36;48.05
59787;BME280;45672;51.612;5.536;2022-07-06T07:20:21;102427.16;;;21.55;47.74
59787;BME280;45672;51.612;5.536;2022-07-06T07:22:47;102423.81;;;22.11;46.82
59787;BME280;45672;51.612;5.536;2022-07-06T07:25:12;102434.47;;;23.54;44.87
59787;BME280;45672;51.612;5.536;2022-07-06T07:27:37;102432.59;;;24.83;41.02
59787;BME280;45672;51.612;5.536;2022-07-06T07:30:03;102431.38;;;25.90;38.26
59787;BME280;45672;51.612;5.536;2022-07-06T07:32:29;102433.34;;;26.40;36.94
59787;BME280;45672;51.612;5.536;2022-07-06T07:34:54;102435.06;;;27.03;35.42
59787;BME280;45672;51.612;5.536;2022-07-06T07:37:19;102437.47;;;27.48;33.73
59787;BME280;45672;51.612;5.536;2022-07-06T07:39:45;102441.59;;;27.58;33.29
59787;BME280;45672;51.612;5.536;2022-07-06T07:42:10;102433.72;;;28.10;32.33
59787;BME280;45672;51.612;5.536;2022-07-06T07:44:35;102445.69;;;28.63;31.47
59787;BME280;45672;51.612;5.536;2022-07-06T07:47:01;102437.31;;;28.94;31.07
59787;BME280;45672;51.612;5.536;2022-07-06T07:49:26;102440.16;;;29.11;30.58
59787;BME280;45672;51.612;5.536;2022-07-06T07:51:51;102438.63;;;29.55;30.27
59787;BME280;45672;51.612;5.536;2022-07-06T07:54:17;102438.94;;;30.17;29.46
59787;BME280;45672;51.612;5.536;2022-07-06T07:56:42;102433.34;;;30.80;28.15
59787;BME280;45672;51.612;5.536;2022-07-06T07:59:08;102437.53;;;31.26;27.77
59787;BME280;45672;51.612;5.536;2022-07-06T08:01:35;102438.97;;;31.78;27.31
59787;BME280;45672;51.612;5.536;2022-07-06T08:04:01;102437.28;;;32.05;26.31
59787;BME280;45672;51.612;5.536;2022-07-06T08:06:26;102427.22;;;32.21;25.77
59787;BME280;45672;51.612;5.536;2022-07-06T08:08:51;102430.34;;;31.97;25.97
59787;BME280;45672;51.612;5.536;2022-07-06T08:11:18;102420.28;;;30.36;28.23
59787;BME280;45672;51.612;5.536;2022-07-06T08:13:43;102417.13;;;30.10;28.41
59787;BME280;45672;51.612;5.536;2022-07-06T08:16:09;102424.22;;;30.57;28.14
59787;BME280;45672;51.612;5.536;2022-07-06T08:18:36;102425.47;;;29.98;28.90
59787;BME280;45672;51.612;5.536;2022-07-06T08:21:02;102434.34;;;28.60;30.07
59787;BME280;45672;51.612;5.536;2022-07-06T08:23:29;102425.06;;;27.64;31.86
59787;BME280;45672;51.612;5.536;2022-07-06T08:25:54;102419.41;;;29.15;29.66
59787;BME280;45672;51.612;5.536;2022-07-06T08:28:21;102415.81;;;31.25;27.56
59787;BME280;45672;51.612;5.536;2022-07-06T08:30:48;102428.09;;;31.94;24.93
59787;BME280;45672;51.612;5.536;2022-07-06T08:33:14;102421.91;;;32.84;23.99
59787;BME280;45672;51.612;5.536;2022-07-06T08:35:39;102422.72;;;33.48;23.59
59787;BME280;45672;51.612;5.536;2022-07-06T08:38:04;102420.84;;;34.05;22.88
59787;BME280;45672;51.612;5.536;2022-07-06T08:40:34;102420.56;;;34.07;23.04
59787;BME280;45672;51.612;5.536;2022-07-06T08:43:01;102418.13;;;31.88;24.13
59787;BME280;45672;51.612;5.536;2022-07-06T08:45:27;102422.56;;;31.39;24.76
59787;BME280;45672;51.612;5.536;2022-07-06T08:47:55;102418.16;;;32.20;24.05
59787;BME280;45672;51.612;5.536;2022-07-06T08:50:24;102414.69;;;31.48;25.01
59787;BME280;45672;51.612;5.536;2022-07-06T08:52:50;102421.91;;;30.88;25.89
59787;BME280;45672;51.612;5.536;2022-07-06T08:55:16;102411.50;;;31.34;24.47
59787;BME280;45672;51.612;5.536;2022-07-06T08:57:45;102404.13;;;30.95;25.35
59787;BME280;45672;51.612;5.536;2022-07-06T09:00:12;102397.16;;;30.15;26.34
59787;BME280;45672;51.612;5.536;2022-07-06T09:02:40;102405.78;;;28.79;28.65
59787;BME280;45672;51.612;5.536;2022-07-06T09:05:06;102411.34;;;27.52;29.05
59787;BME280;45672;51.612;5.536;2022-07-06T09:07:33;102407.03;;;26.71;30.19
59787;BME280;45672;51.612;5.536;2022-07-06T09:09:59;102409.31;;;28.09;28.46
59787;BME280;45672;51.612;5.536;2022-07-06T09:12:26;102411.59;;;28.59;27.65
59787;BME280;45672;51.612;5.536;2022-07-06T09:14:55;102408.91;;;29.64;26.49
59787;BME280;45672;51.612;5.536;2022-07-06T09:17:25;102405.63;;;30.64;25.54
59787;BME280;45672;51.612;5.536;2022-07-06T09:19:50;102405.47;;;30.71;24.04
59787;BME280;45672;51.612;5.536;2022-07-06T09:22:32;102410.63;;;30.67;25.84
59787;BME280;45672;51.612;5.536;2022-07-06T09:27:29;102414.44;;;32.85;21.92
59787;BME280;45672;51.612;5.536;2022-07-06T09:29:59;102406.50;;;33.82;20.65
59787;BME280;45672;51.612;5.536;2022-07-06T09:32:24;102407.84;;;34.47;20.30
59787;BME280;45672;51.612;5.536;2022-07-06T09:34:50;102419.00;;;35.07;20.52
59787;BME280;45672;51.612;5.536;2022-07-06T09:37:15;102411.59;;;35.47;19.27
59787;BME280;45672;51.612;5.536;2022-07-06T09:39:42;102424.69;;;34.45;20.35
59787;BME280;45672;51.612;5.536;2022-07-06T09:42:08;102426.00;;;32.06;22.32
59787;BME280;45672;51.612;5.536;2022-07-06T09:44:40;102417.06;;;30.22;25.31
59787;BME280;45672;51.612;5.536;2022-07-06T09:47:08;102420.06;;;28.69;27.03
59787;BME280;45672;51.612;5.536;2022-07-06T09:49:35;102417.59;;;27.72;28.01
59787;BME280;45672;51.612;5.536;2022-07-06T09:52:02;102418.28;;;26.81;28.06
59787;BME280;45672;51.612;5.536;2022-07-06T09:54:28;102412.91;;;26.42;28.32
59787;BME280;45672;51.612;5.536;2022-07-06T09:56:55;102419.41;;;26.73;28.02
59787;BME280;45672;51.612;5.536;2022-07-06T09:59:23;102424.03;;;27.77;26.50
59787;BME280;45672;51.612;5.536;2022-07-06T10:01:57;102420.06;;;27.92;25.98
59787;BME280;45672;51.612;5.536;2022-07-06T10:04:24;102427.53;;;27.54;27.15
59787;BME280;45672;51.612;5.536;2022-07-06T10:06:51;102417.13;;;27.07;27.92
59787;BME280;45672;51.612;5.536;2022-07-06T10:09:18;102421.47;;;27.15;28.42
59787;BME280;45672;51.612;5.536;2022-07-06T10:11:50;102419.34;;;27.17;28.92
59787;BME280;45672;51.612;5.536;2022-07-06T10:14:22;102422.06;;;26.98;29.05
59787;BME280;45672;51.612;5.536;2022-07-06T10:16:48;102418.81;;;26.71;28.80
59787;BME280;45672;51.612;5.536;2022-07-06T10:19:16;102415.00;;;26.47;29.22
59787;BME280;45672;51.612;5.536;2022-07-06T10:21:41;102415.22;;;26.71;28.96
59787;BME280;45672;51.612;5.536;2022-07-06T10:24:09;102422.00;;;26.36;28.78
59787;BME280;45672;51.612;5.536;2022-07-06T10:26:35;102423.63;;;26.19;29.10
59787;BME280;45672;51.612;5.536;2022-07-06T10:29:02;102422.00;;;26.61;29.13
59787;BME280;45672;51.612;5.536;2022-07-06T10:31:28;102419.94;;;27.00;28.47
59787;BME280;45672;51.612;5.536;2022-07-06T10:33:55;102422.84;;;27.24;27.74
59787;BME280;45672;51.612;5.536;2022-07-06T10:36:22;102423.50;;;27.57;27.25
59787;BME280;45672;51.612;5.536;2022-07-06T10:38:52;102415.25;;;27.75;27.87
59787;BME280;45672;51.612;5.536;2022-07-06T10:41:29;102420.56;;;27.40;27.76
59787;BME280;45672;51.612;5.536;2022-07-06T10:43:57;102426.31;;;27.31;28.03
59787;BME280;45672;51.612;5.536;2022-07-06T10:46:27;102415.84;;;27.28;28.31
59787;BME280;45672;51.612;5.536;2022-07-06T10:48:54;102419.03;;;26.88;28.84
59787;BME280;45672;51.612;5.536;2022-07-06T10:51:27;102420.09;;;26.62;29.61
59787;BME280;45672;51.612;5.536;2022-07-06T10:53:58;102417.22;;;26.31;30.10
59787;BME280;45672;51.612;5.536;2022-07-06T10:56:42;102422.63;;;26.13;30.57
59787;BME280;45672;51.612;5.536;2022-07-06T11:01:39;102420.84;;;25.93;30.74
59787;BME280;45672;51.612;5.536;2022-07-06T11:04:06;102419.13;;;25.67;30.42
59787;BME280;45672;51.612;5.536;2022-07-06T11:06:37;102407.19;;;25.61;30.61
59787;BME280;45672;51.612;5.536;2022-07-06T11:09:07;102409.06;;;25.61;30.38
59787;BME280;45672;51.612;5.536;2022-07-06T11:14:16;102408.16;;;25.35;31.31
59787;BME280;45672;51.612;5.536;2022-07-06T11:19:15;102419.31;;;25.13;30.89
59787;BME280;45672;51.612;5.536;2022-07-06T11:21:54;102405.69;;;25.13;31.77
59787;BME280;45672;51.612;5.536;2022-07-06T11:24:28;102411.44;;;25.44;31.68
59787;BME280;45672;51.612;5.536;2022-07-06T11:26:55;102405.53;;;25.54;30.63
59787;BME280;45672;51.612;5.536;2022-07-06T11:29:22;102400.53;;;25.51;31.11
59787;BME280;45672;51.612;5.536;2022-07-06T11:31:50;102414.75;;;25.53;30.75
59787;BME280;45672;51.612;5.536;2022-07-06T11:34:22;102402.16;;;25.58;31.15
59787;BME280;45672;51.612;5.536;2022-07-06T11:36:48;102405.66;;;25.72;30.47
59787;BME280;45672;51.612;5.536;2022-07-06T11:39:13;102388.47;;;25.72;30.05
59787;BME280;45672;51.612;5.536;2022-07-06T11:41:39;102387.31;;;25.54;30.88
59787;BME280;45672;51.612;5.536;2022-07-06T11:44:05;102396.78;;;25.45;30.92
59787;BME280;45672;51.612;5.536;2022-07-06T11:46:31;102395.50;;;25.54;31.61
59787;BME280;45672;51.612;5.536;2022-07-06T11:49:00;102382.91;;;25.53;30.78
59787;BME280;45672;51.612;5.536;2022-07-06T11:51:30;102376.19;;;25.56;30.70
59787;BME280;45672;51.612;5.536;2022-07-06T11:53:58;102369.56;;;25.38;30.94
59787;BME280;45672;51.612;5.536;2022-07-06T11:56:30;102377.53;;;24.61;31.62
59787;BME280;45672;51.612;5.536;2022-07-06T11:58:57;102380.88;;;24.56;31.88
59787;BME280;45672;51.612;5.536;2022-07-06T12:01:25;102375.22;;;24.44;32.74
59787;BME280;45672;51.612;5.536;2022-07-06T12:03:51;102368.13;;;24.37;33.29
59787;BME280;45672;51.612;5.536;2022-07-06T12:06:18;102369.97;;;24.63;32.77
59787;BME280;45672;51.612;5.536;2022-07-06T12:08:45;102363.00;;;24.94;32.21
59787;BME280;45672;51.612;5.536;2022-07-06T12:11:16;102365.50;;;25.09;31.45
59787;BME280;45672;51.612;5.536;2022-07-06T12:13:43;102360.94;;;24.89;31.87
59787;BME280;45672;51.612;5.536;2022-07-06T12:16:10;102355.47;;;24.96;32.05
59787;BME280;45672;51.612;5.536;2022-07-06T12:18:37;102348.81;;;24.85;31.30
59787;BME280;45672;51.612;5.536;2022-07-06T12:21:03;102344.81;;;24.81;32.22
59787;BME280;45672;51.612;5.536;2022-07-06T12:23:41;102349.25;;;24.55;31.35
59787;BME280;45672;51.612;5.536;2022-07-06T12:26:07;102350.50;;;24.46;32.09
59787;BME280;45672;51.612;5.536;2022-07-06T12:28:32;102340.88;;;24.57;32.73
59787;BME280;45672;51.612;5.536;2022-07-06T12:30:58;102353.88;;;24.68;32.88
59787;BME280;45672;51.612;5.536;2022-07-06T12:33:23;102344.63;;;24.76;32.09
59787;BME280;45672;51.612;5.536;2022-07-06T12:35:48;102343.38;;;24.58;31.47
59787;BME280;45672;51.612;5.536;2022-07-06T12:38:22;102343.22;;;24.40;32.86
59787;BME280;45672;51.612;5.536;2022-07-06T12:40:47;102347.56;;;24.54;32.83
59787;BME280;45672;51.612;5.536;2022-07-06T12:43:12;102339.03;;;24.44;32.48
59787;BME280;45672;51.612;5.536;2022-07-06T12:45:40;102335.69;;;24.29;33.71
59787;BME280;45672;51.612;5.536;2022-07-06T12:48:08;102327.31;;;23.90;32.37
59787;BME280;45672;51.612;5.536;2022-07-06T12:50:35;102333.38;;;23.85;33.39
59787;BME280;45672;51.612;5.536;2022-07-06T12:53:03;102329.22;;;24.09;33.12
59787;BME280;45672;51.612;5.536;2022-07-06T12:55:29;102335.47;;;24.37;32.54
59787;BME280;45672;51.612;5.536;2022-07-06T12:57:56;102334.00;;;24.34;32.34